Rp Zug — HE7351 — position and weather

sailwx.info

Track history (hours):
 
Tides and Currents Weather Stations Pressure Air Temp Water Temp Dewpoint Dewpoint Depression Visibility Wind Speed Wind Dir Waves Ship Positions

Rp Zug

Last reported at 2015-May-24 22:33 UTC. Time now 2015-May-24 23:23 UTC.
Position N 49°15' E 008°26'.

Length 110 m; draft 3 m.

Type: Tanker. MMSI: 269057351.

Date/timePositionNaut miles runAvg speedWind from/ knotsBaromVisibWave heightAir tempDewpointWater temp
2015-May-24 22:33N 49°15' E 008°26'4 3.6
2015-May-24 21:33N 49°19' E 008°28'7 4.9
2015-May-24 20:13N 49°25' E 008°30'103 4.1
2015-May-23 19:15N 50°50' E 006°59'1 0.1
2015-May-23 06:12N 50°51' E 006°59'0 0.5
2015-May-23 05:31N 50°51' E 006°60'0 0.0
2015-May-23 02:11N 50°51' E 006°60'105 5.4
2015-May-22 06:30N 49°23' E 008°30'1010.7
2015-May-22 05:33N 49°14' E 008°23'1111.1
2015-May-22 04:33N 49°03' E 008°18'1010.5
2015-May-22 03:33N 48°55' E 008°09'5 0.8
2015-May-21 21:30N 48°50' E 008°07'6 6.3
2015-May-21 20:33N 48°46' E 008°00'6 5.9
2015-May-21 19:33N 48°41' E 007°55'0 0.0
2015-May-21 03:31N 48°41' E 007°55'5 5.6
2015-May-21 02:33N 48°46' E 007°59'6 6.5
2015-May-21 01:33N 48°50' E 008°07'3 3.4
2015-May-21 00:32N 48°53' E 008°08'4 4.2
2015-May-20 23:33N 48°57' E 008°11'4 4.2
2015-May-20 22:33N 48°59' E 008°17'5 4.6
2015-May-20 21:33N 49°04' E 008°19'5 4.6
2015-May-20 20:33N 49°08' E 008°22'5 4.7
2015-May-20 19:33N 49°12' E 008°23'5 4.7
2015-May-20 18:33N 49°16' E 008°27'4 3.5
2015-May-20 17:33N 49°20' E 008°27'5 5.2
2015-May-20 16:30N 49°25' E 008°30'41 1.5
2015-May-19 12:30N 50°06' E 008°38'4 4.2
2015-May-19 11:33N 50°07' E 008°44'0 0.4
2015-May-19 10:32N 50°07' E 008°45'0 0.0
2015-May-19 09:32N 50°07' E 008°45'0 0.0
2015-May-19 08:32N 50°07' E 008°45'0 0.0
2015-May-19 07:32N 50°07' E 008°45'0 0.0
2015-May-19 06:33N 50°07' E 008°45'0 0.0
2015-May-19 05:33N 50°07' E 008°45'0 0.0
2015-May-19 04:33N 50°07' E 008°45'0 0.0
2015-May-19 03:33N 50°07' E 008°45'0 0.0
2015-May-19 02:33N 50°07' E 008°45'1 1.1
2015-May-19 01:32N 50°06' E 008°43'5 4.8
2015-May-19 00:33N 50°05' E 008°36'4 3.1
2015-May-18 23:18N 50°03' E 008°31'74 1.7
2015-May-17 02:32N 50°50' E 006°59'4 4.3
2015-May-17 01:30N 50°54' E 007°02'4 4.6
2015-May-17 00:33N 50°57' E 006°58'14 4.5
2015-May-16 21:33N 51°10' E 006°50'3 3.0
2015-May-16 20:33N 51°11' E 006°46'2 2.2
2015-May-16 19:33N 51°13' E 006°45'4 4.1
2015-May-16 18:32N 51°17' E 006°43'4 4.3
2015-May-16 17:33N 51°21' E 006°40'9 3.8
2015-May-16 15:13N 51°30' E 006°42'4 4.5
2015-May-16 14:23N 51°33' E 006°41'17 4.2
2015-May-16 10:23N 51°45' E 006°22'5 6.0
2015-May-16 09:30N 51°49' E 006°16'7 5.5
2015-May-16 08:13N 51°51' E 006°05'3 4.8
2015-May-16 07:31N 51°53' E 006°00'6 5.4
2015-May-16 06:25N 51°51' E 005°51'6 6.8
2015-May-16 05:30N 51°54' E 005°42'27 6.2
2015-May-16 01:09N 51°49' E 004°59'1621.1
2015-May-16 00:23N 51°54' E 004°34'5 5.8
2015-May-15 23:33N 51°51' E 004°40'10 9.9
2015-May-15 22:33N 51°54' E 004°24'2 1.6
2015-May-15 21:33N 51°54' E 004°22'0 0.0
2015-May-15 20:33N 51°54' E 004°22'0 0.0
2015-May-15 19:33N 51°54' E 004°22'0 0.0
2015-May-15 18:33N 51°54' E 004°22'0 0.0
2015-May-15 17:33N 51°54' E 004°22'0 0.0
2015-May-15 16:33N 51°54' E 004°22'0 0.0
2015-May-15 15:33N 51°54' E 004°22'0 0.0
2015-May-15 14:33N 51°54' E 004°22'0 0.0
2015-May-15 13:33N 51°54' E 004°22'6 5.8
2015-May-15 12:33N 51°54' E 004°31'7 7.4
2015-May-15 11:34N 51°50' E 004°40'2110.6
2015-May-15 09:33N 51°49' E 005°15'2110.3
2015-May-15 07:30N 51°52' E 005°49'3310.1
2015-May-15 04:17N 51°39' E 006°36'6 8.4
2015-May-15 03:34N 51°34' E 006°41'19 8.8
2015-May-15 01:27N 51°15' E 006°45'7 7.7
2015-May-15 00:33N 51°09' E 006°48'  
Track history (hours):
 
Tides and Currents Weather Stations Pressure Air Temp Water Temp Dewpoint Dewpoint Depression Visibility Wind Speed Wind Dir Waves Ship Positions

Rp Zug

Last reported at 2015-May-24 22:33 UTC. Time now 2015-May-24 23:23 UTC.
Position N 49°15' E 008°26'.

Length 110 m; draft 3 m.

Type: Tanker. MMSI: 269057351.

Date/timePositionNaut miles runAvg speedWind from/ knotsBaromVisibWave heightAir tempDewpointWater temp
2015-May-24 22:33N 49°15' E 008°26'4 3.6
2015-May-24 21:33N 49°19' E 008°28'7 4.9
2015-May-24 20:13N 49°25' E 008°30'103 4.1
2015-May-23 19:15N 50°50' E 006°59'1 0.1
2015-May-23 06:12N 50°51' E 006°59'0 0.5
2015-May-23 05:31N 50°51' E 006°60'0 0.0
2015-May-23 02:11N 50°51' E 006°60'105 5.4
2015-May-22 06:30N 49°23' E 008°30'1010.7
2015-May-22 05:33N 49°14' E 008°23'1111.1
2015-May-22 04:33N 49°03' E 008°18'1010.5
2015-May-22 03:33N 48°55' E 008°09'5 0.8
2015-May-21 21:30N 48°50' E 008°07'6 6.3
2015-May-21 20:33N 48°46' E 008°00'6 5.9
2015-May-21 19:33N 48°41' E 007°55'0 0.0
2015-May-21 03:31N 48°41' E 007°55'5 5.6
2015-May-21 02:33N 48°46' E 007°59'6 6.5
2015-May-21 01:33N 48°50' E 008°07'3 3.4
2015-May-21 00:32N 48°53' E 008°08'4 4.2
2015-May-20 23:33N 48°57' E 008°11'4 4.2
2015-May-20 22:33N 48°59' E 008°17'5 4.6
2015-May-20 21:33N 49°04' E 008°19'5 4.6
2015-May-20 20:33N 49°08' E 008°22'5 4.7
2015-May-20 19:33N 49°12' E 008°23'5 4.7
2015-May-20 18:33N 49°16' E 008°27'4 3.5
2015-May-20 17:33N 49°20' E 008°27'5 5.2
2015-May-20 16:30N 49°25' E 008°30'41 1.5
2015-May-19 12:30N 50°06' E 008°38'4 4.2
2015-May-19 11:33N 50°07' E 008°44'0 0.4
2015-May-19 10:32N 50°07' E 008°45'0 0.0
2015-May-19 09:32N 50°07' E 008°45'0 0.0
2015-May-19 08:32N 50°07' E 008°45'0 0.0
2015-May-19 07:32N 50°07' E 008°45'0 0.0
2015-May-19 06:33N 50°07' E 008°45'0 0.0
2015-May-19 05:33N 50°07' E 008°45'0 0.0
2015-May-19 04:33N 50°07' E 008°45'0 0.0
2015-May-19 03:33N 50°07' E 008°45'0 0.0
2015-May-19 02:33N 50°07' E 008°45'1 1.1
2015-May-19 01:32N 50°06' E 008°43'5 4.8
2015-May-19 00:33N 50°05' E 008°36'4 3.1
2015-May-18 23:18N 50°03' E 008°31'74 1.7
2015-May-17 02:32N 50°50' E 006°59'4 4.3
2015-May-17 01:30N 50°54' E 007°02'4 4.6
2015-May-17 00:33N 50°57' E 006°58'14 4.5
2015-May-16 21:33N 51°10' E 006°50'3 3.0
2015-May-16 20:33N 51°11' E 006°46'2 2.2
2015-May-16 19:33N 51°13' E 006°45'4 4.1
2015-May-16 18:32N 51°17' E 006°43'4 4.3
2015-May-16 17:33N 51°21' E 006°40'9 3.8
2015-May-16 15:13N 51°30' E 006°42'4 4.5
2015-May-16 14:23N 51°33' E 006°41'17 4.2
2015-May-16 10:23N 51°45' E 006°22'5 6.0
2015-May-16 09:30N 51°49' E 006°16'7 5.5
2015-May-16 08:13N 51°51' E 006°05'3 4.8
2015-May-16 07:31N 51°53' E 006°00'6 5.4
2015-May-16 06:25N 51°51' E 005°51'6 6.8
2015-May-16 05:30N 51°54' E 005°42'27 6.2
2015-May-16 01:09N 51°49' E 004°59'1621.1
2015-May-16 00:23N 51°54' E 004°34'5 5.8
2015-May-15 23:33N 51°51' E 004°40'10 9.9
2015-May-15 22:33N 51°54' E 004°24'2 1.6
2015-May-15 21:33N 51°54' E 004°22'0 0.0
2015-May-15 20:33N 51°54' E 004°22'0 0.0
2015-May-15 19:33N 51°54' E 004°22'0 0.0
2015-May-15 18:33N 51°54' E 004°22'0 0.0
2015-May-15 17:33N 51°54' E 004°22'0 0.0
2015-May-15 16:33N 51°54' E 004°22'0 0.0
2015-May-15 15:33N 51°54' E 004°22'0 0.0
2015-May-15 14:33N 51°54' E 004°22'0 0.0
2015-May-15 13:33N 51°54' E 004°22'6 5.8
2015-May-15 12:33N 51°54' E 004°31'7 7.4
2015-May-15 11:34N 51°50' E 004°40'2110.6
2015-May-15 09:33N 51°49' E 005°15'2110.3
2015-May-15 07:30N 51°52' E 005°49'3310.1
2015-May-15 04:17N 51°39' E 006°36'6 8.4
2015-May-15 03:34N 51°34' E 006°41'19 8.8
2015-May-15 01:27N 51°15' E 006°45'7 7.7
2015-May-15 00:33N 51°09' E 006°48'  

Dump ship's entire track history